sensor_id;sensor_type;location;lat;lon;timestamp;temperature;humidity
31263;DHT22;17892;52.080;9.006;2022-11-06T00:00:13;10.50;92.70
31263;DHT22;17892;52.080;9.006;2022-11-06T00:02:39;10.50;92.60
31263;DHT22;17892;52.080;9.006;2022-11-06T00:05:05;10.50;92.50
31263;DHT22;17892;52.080;9.006;2022-11-06T00:07:51;10.60;92.60
31263;DHT22;17892;52.080;9.006;2022-11-06T00:10:17;10.60;92.60
31263;DHT22;17892;52.080;9.006;2022-11-06T00:12:43;10.60;92.70
31263;DHT22;17892;52.080;9.006;2022-11-06T00:15:09;10.60;92.60
31263;DHT22;17892;52.080;9.006;2022-11-06T00:17:35;10.60;92.50
31263;DHT22;17892;52.080;9.006;2022-11-06T00:20:01;10.60;92.40
31263;DHT22;17892;52.080;9.006;2022-11-06T00:22:27;10.60;92.50
31263;DHT22;17892;52.080;9.006;2022-11-06T00:24:53;10.60;92.40
31263;DHT22;17892;52.080;9.006;2022-11-06T00:27:18;10.60;92.50
31263;DHT22;17892;52.080;9.006;2022-11-06T00:29:44;10.60;92.30
31263;DHT22;17892;52.080;9.006;2022-11-06T00:32:10;10.60;92.30
31263;DHT22;17892;52.080;9.006;2022-11-06T00:34:35;10.50;92.20
31263;DHT22;17892;52.080;9.006;2022-11-06T00:37:01;10.50;92.20
31263;DHT22;17892;52.080;9.006;2022-11-06T00:39:26;10.50;92.50
31263;DHT22;17892;52.080;9.006;2022-11-06T00:41:52;10.40;92.10
31263;DHT22;17892;52.080;9.006;2022-11-06T00:44:17;10.30;92.10
31263;DHT22;17892;52.080;9.006;2022-11-06T00:46:43;10.30;92.10
31263;DHT22;17892;52.080;9.006;2022-11-06T00:49:09;10.20;92.10
31263;DHT22;17892;52.080;9.006;2022-11-06T00:51:35;10.10;92.20
31263;DHT22;17892;52.080;9.006;2022-11-06T00:54:04;10.00;92.30
31263;DHT22;17892;52.080;9.006;2022-11-06T00:56:31;10.00;92.30
31263;DHT22;17892;52.080;9.006;2022-11-06T00:58:58;9.90;93.20
31263;DHT22;17892;52.080;9.006;2022-11-06T01:01:29;9.80;93.00
31263;DHT22;17892;52.080;9.006;2022-11-06T01:04:00;9.80;93.10
31263;DHT22;17892;52.080;9.006;2022-11-06T01:06:28;9.70;93.10
31263;DHT22;17892;52.080;9.006;2022-11-06T01:08:56;9.60;93.30
31263;DHT22;17892;52.080;9.006;2022-11-06T01:11:23;9.60;93.40
31263;DHT22;17892;52.080;9.006;2022-11-06T01:13:52;9.50;93.40
31263;DHT22;17892;52.080;9.006;2022-11-06T01:16:19;9.50;93.40
31263;DHT22;17892;52.080;9.006;2022-11-06T01:18:46;9.40;93.40
31263;DHT22;17892;52.080;9.006;2022-11-06T01:21:13;9.40;93.40
31263;DHT22;17892;52.080;9.006;2022-11-06T01:23:46;9.40;93.50
31263;DHT22;17892;52.080;9.006;2022-11-06T01:26:12;9.30;93.70
31263;DHT22;17892;52.080;9.006;2022-11-06T01:28:39;9.30;93.60
31263;DHT22;17892;52.080;9.006;2022-11-06T01:31:06;9.30;94.20
31263;DHT22;17892;52.080;9.006;2022-11-06T01:33:33;9.30;94.00
31263;DHT22;17892;52.080;9.006;2022-11-06T01:35:59;9.20;94.10
31263;DHT22;17892;52.080;9.006;2022-11-06T01:38:25;9.20;94.10
31263;DHT22;17892;52.080;9.006;2022-11-06T01:40:51;9.20;94.10
31263;DHT22;17892;52.080;9.006;2022-11-06T01:43:18;9.20;94.00
31263;DHT22;17892;52.080;9.006;2022-11-06T01:46:07;9.20;94.10
31263;DHT22;17892;52.080;9.006;2022-11-06T01:48:32;9.10;94.00
31263;DHT22;17892;52.080;9.006;2022-11-06T01:50:58;9.10;94.10
31263;DHT22;17892;52.080;9.006;2022-11-06T01:53:24;9.10;94.10
31263;DHT22;17892;52.080;9.006;2022-11-06T01:55:51;9.10;94.10
31263;DHT22;17892;52.080;9.006;2022-11-06T01:58:19;9.00;94.10
31263;DHT22;17892;52.080;9.006;2022-11-06T02:00:47;9.00;94.20
31263;DHT22;17892;52.080;9.006;2022-11-06T02:03:13;9.00;94.30
31263;DHT22;17892;52.080;9.006;2022-11-06T02:05:39;9.00;94.30
31263;DHT22;17892;52.080;9.006;2022-11-06T02:08:06;9.00;94.40
31263;DHT22;17892;52.080;9.006;2022-11-06T02:10:33;9.00;94.40
31263;DHT22;17892;52.080;9.006;2022-11-06T02:19:13;9.00;94.50
31263;DHT22;17892;52.080;9.006;2022-11-06T02:27:07;8.90;94.30
31263;DHT22;17892;52.080;9.006;2022-11-06T02:29:44;8.90;94.30
31263;DHT22;17892;52.080;9.006;2022-11-06T02:32:26;8.90;94.20
31263;DHT22;17892;52.080;9.006;2022-11-06T02:35:18;8.80;94.60
31263;DHT22;17892;52.080;9.006;2022-11-06T02:37:56;8.70;94.10
31263;DHT22;17892;52.080;9.006;2022-11-06T02:40:25;8.70;94.10
31263;DHT22;17892;52.080;9.006;2022-11-06T02:42:55;8.60;94.10
31263;DHT22;17892;52.080;9.006;2022-11-06T02:45:22;8.50;94.20
31263;DHT22;17892;52.080;9.006;2022-11-06T02:47:48;8.50;94.30
31263;DHT22;17892;52.080;9.006;2022-11-06T02:50:23;8.40;94.60
31263;DHT22;17892;52.080;9.006;2022-11-06T02:52:54;8.40;94.90
31263;DHT22;17892;52.080;9.006;2022-11-06T02:55:27;8.40;94.80
31263;DHT22;17892;52.080;9.006;2022-11-06T02:57:56;8.30;94.90
31263;DHT22;17892;52.080;9.006;2022-11-06T03:00:25;8.30;95.00
31263;DHT22;17892;52.080;9.006;2022-11-06T03:02:57;8.30;95.00
31263;DHT22;17892;52.080;9.006;2022-11-06T03:08:01;8.30;95.30
31263;DHT22;17892;52.080;9.006;2022-11-06T03:10:32;8.30;95.50
31263;DHT22;17892;52.080;9.006;2022-11-06T03:15:47;8.30;95.50
31263;DHT22;17892;52.080;9.006;2022-11-06T03:25:54;8.40;95.70
31263;DHT22;17892;52.080;9.006;2022-11-06T03:31:23;8.40;95.70
31263;DHT22;17892;52.080;9.006;2022-11-06T03:33:53;8.40;95.60
31263;DHT22;17892;52.080;9.006;2022-11-06T03:36:28;8.40;95.60
31263;DHT22;17892;52.080;9.006;2022-11-06T03:39:00;8.40;95.60
31263;DHT22;17892;52.080;9.006;2022-11-06T03:41:33;8.40;95.50
31263;DHT22;17892;52.080;9.006;2022-11-06T03:44:03;8.40;95.60
31263;DHT22;17892;52.080;9.006;2022-11-06T03:46:29;8.40;95.60
31263;DHT22;17892;52.080;9.006;2022-11-06T03:49:00;8.40;95.60
31263;DHT22;17892;52.080;9.006;2022-11-06T03:54:24;8.30;95.70
31263;DHT22;17892;52.080;9.006;2022-11-06T03:57:26;8.30;95.70
31263;DHT22;17892;52.080;9.006;2022-11-06T03:59:52;8.30;95.90
31263;DHT22;17892;52.080;9.006;2022-11-06T04:02:20;8.30;95.80
31263;DHT22;17892;52.080;9.006;2022-11-06T04:04:48;8.30;96.00
31263;DHT22;17892;52.080;9.006;2022-11-06T04:07:18;8.30;96.00
31263;DHT22;17892;52.080;9.006;2022-11-06T04:09:48;8.30;95.90
31263;DHT22;17892;52.080;9.006;2022-11-06T04:12:34;8.30;95.90
31263;DHT22;17892;52.080;9.006;2022-11-06T04:15:21;8.30;95.80
31263;DHT22;17892;52.080;9.006;2022-11-06T04:17:47;8.30;96.00
31263;DHT22;17892;52.080;9.006;2022-11-06T04:20:14;8.30;95.90
31263;DHT22;17892;52.080;9.006;2022-11-06T04:23:06;8.30;95.80
31263;DHT22;17892;52.080;9.006;2022-11-06T04:26:21;8.30;95.80
31263;DHT22;17892;52.080;9.006;2022-11-06T04:29:09;8.30;95.80
31263;DHT22;17892;52.080;9.006;2022-11-06T04:31:57;8.30;95.80
31263;DHT22;17892;52.080;9.006;2022-11-06T04:37:11;8.20;96.10
31263;DHT22;17892;52.080;9.006;2022-11-06T04:39:50;8.20;96.30
31263;DHT22;17892;52.080;9.006;2022-11-06T04:42:30;8.20;96.30
31263;DHT22;17892;52.080;9.006;2022-11-06T04:45:03;8.30;96.30
31263;DHT22;17892;52.080;9.006;2022-11-06T04:47:41;8.30;96.30
31263;DHT22;17892;52.080;9.006;2022-11-06T04:50:08;8.30;96.30
31263;DHT22;17892;52.080;9.006;2022-11-06T04:52:36;8.30;96.30
31263;DHT22;17892;52.080;9.006;2022-11-06T04:55:02;8.30;96.20
31263;DHT22;17892;52.080;9.006;2022-11-06T04:57:28;8.40;96.20
31263;DHT22;17892;52.080;9.006;2022-11-06T04:59:54;8.40;96.20
31263;DHT22;17892;52.080;9.006;2022-11-06T05:02:21;8.40;96.20
31263;DHT22;17892;52.080;9.006;2022-11-06T05:04:47;8.50;96.30
31263;DHT22;17892;52.080;9.006;2022-11-06T05:07:13;8.50;96.20
31263;DHT22;17892;52.080;9.006;2022-11-06T05:09:39;8.50;96.20
31263;DHT22;17892;52.080;9.006;2022-11-06T05:12:05;8.60;96.20
31263;DHT22;17892;52.080;9.006;2022-11-06T05:14:31;8.60;96.10
31263;DHT22;17892;52.080;9.006;2022-11-06T05:16:57;8.60;96.00
31263;DHT22;17892;52.080;9.006;2022-11-06T05:19:23;8.70;96.00
31263;DHT22;17892;52.080;9.006;2022-11-06T05:21:49;8.70;96.00
31263;DHT22;17892;52.080;9.006;2022-11-06T05:24:33;8.70;95.90
31263;DHT22;17892;52.080;9.006;2022-11-06T05:26:59;8.80;95.90
31263;DHT22;17892;52.080;9.006;2022-11-06T05:29:24;8.80;95.80
31263;DHT22;17892;52.080;9.006;2022-11-06T05:31:50;8.80;95.70
31263;DHT22;17892;52.080;9.006;2022-11-06T05:34:16;8.80;95.70
31263;DHT22;17892;52.080;9.006;2022-11-06T05:36:41;8.80;95.60
31263;DHT22;17892;52.080;9.006;2022-11-06T05:39:07;8.80;95.60
31263;DHT22;17892;52.080;9.006;2022-11-06T05:41:32;8.80;95.70
31263;DHT22;17892;52.080;9.006;2022-11-06T05:43:58;8.80;95.70
31263;DHT22;17892;52.080;9.006;2022-11-06T05:46:24;8.80;95.70
31263;DHT22;17892;52.080;9.006;2022-11-06T05:48:49;8.80;95.70
31263;DHT22;17892;52.080;9.006;2022-11-06T05:51:15;8.80;95.70
31263;DHT22;17892;52.080;9.006;2022-11-06T05:53:41;8.80;95.70
31263;DHT22;17892;52.080;9.006;2022-11-06T05:56:06;8.80;95.60
31263;DHT22;17892;52.080;9.006;2022-11-06T05:58:32;8.80;95.60
31263;DHT22;17892;52.080;9.006;2022-11-06T06:00:58;8.80;95.60
31263;DHT22;17892;52.080;9.006;2022-11-06T06:03:24;8.80;95.60
31263;DHT22;17892;52.080;9.006;2022-11-06T06:05:50;8.80;95.60
31263;DHT22;17892;52.080;9.006;2022-11-06T06:08:16;8.70;95.60
31263;DHT22;17892;52.080;9.006;2022-11-06T06:10:42;8.70;95.60
31263;DHT22;17892;52.080;9.006;2022-11-06T06:13:08;8.70;95.60
31263;DHT22;17892;52.080;9.006;2022-11-06T06:15:34;8.70;95.60
31263;DHT22;17892;52.080;9.006;2022-11-06T06:17:59;8.60;95.60
31263;DHT22;17892;52.080;9.006;2022-11-06T06:20:25;8.60;96.00
31263;DHT22;17892;52.080;9.006;2022-11-06T06:22:54;8.60;95.70
31263;DHT22;17892;52.080;9.006;2022-11-06T06:25:20;8.60;95.80
31263;DHT22;17892;52.080;9.006;2022-11-06T06:27:46;8.50;95.80
31263;DHT22;17892;52.080;9.006;2022-11-06T06:30:12;8.50;95.90
31263;DHT22;17892;52.080;9.006;2022-11-06T06:32:38;8.50;96.10
31263;DHT22;17892;52.080;9.006;2022-11-06T06:35:03;8.50;96.20
31263;DHT22;17892;52.080;9.006;2022-11-06T06:37:29;8.50;96.10
31263;DHT22;17892;52.080;9.006;2022-11-06T06:39:55;8.50;96.10
31263;DHT22;17892;52.080;9.006;2022-11-06T06:42:20;8.50;96.10
31263;DHT22;17892;52.080;9.006;2022-11-06T06:44:46;8.50;96.20
31263;DHT22;17892;52.080;9.006;2022-11-06T06:47:12;8.50;96.20
31263;DHT22;17892;52.080;9.006;2022-11-06T06:49:44;8.50;96.20
31263;DHT22;17892;52.080;9.006;2022-11-06T06:52:09;8.50;96.20
31263;DHT22;17892;52.080;9.006;2022-11-06T06:54:35;8.50;96.20
31263;DHT22;17892;52.080;9.006;2022-11-06T06:57:01;8.50;96.20
31263;DHT22;17892;52.080;9.006;2022-11-06T06:59:27;8.50;96.10
31263;DHT22;17892;52.080;9.006;2022-11-06T07:01:53;8.50;96.20
31263;DHT22;17892;52.080;9.006;2022-11-06T07:04:19;8.50;96.20
31263;DHT22;17892;52.080;9.006;2022-11-06T07:06:44;8.50;96.30
31263;DHT22;17892;52.080;9.006;2022-11-06T07:09:10;8.50;96.40
31263;DHT22;17892;52.080;9.006;2022-11-06T07:11:36;8.50;96.40
31263;DHT22;17892;52.080;9.006;2022-11-06T07:14:01;8.50;96.40
31263;DHT22;17892;52.080;9.006;2022-11-06T07:16:27;8.60;96.40
31263;DHT22;17892;52.080;9.006;2022-11-06T07:18:54;8.60;96.40
31263;DHT22;17892;52.080;9.006;2022-11-06T07:21:20;8.60;96.80
31263;DHT22;17892;52.080;9.006;2022-11-06T07:23:46;8.60;96.50
31263;DHT22;17892;52.080;9.006;2022-11-06T07:26:12;8.60;96.40
31263;DHT22;17892;52.080;9.006;2022-11-06T07:28:38;8.60;96.50
31263;DHT22;17892;52.080;9.006;2022-11-06T07:31:05;8.70;96.50
31263;DHT22;17892;52.080;9.006;2022-11-06T07:33:31;8.70;96.50
31263;DHT22;17892;52.080;9.006;2022-11-06T07:36:01;8.70;96.50
31263;DHT22;17892;52.080;9.006;2022-11-06T07:38:35;8.80;96.60
31263;DHT22;17892;52.080;9.006;2022-11-06T07:41:02;8.80;96.60
31263;DHT22;17892;52.080;9.006;2022-11-06T07:43:37;8.80;96.50
31263;DHT22;17892;52.080;9.006;2022-11-06T07:46:04;8.90;96.50
31263;DHT22;17892;52.080;9.006;2022-11-06T07:48:31;8.90;96.40
31263;DHT22;17892;52.080;9.006;2022-11-06T07:50:57;9.00;96.40
31263;DHT22;17892;52.080;9.006;2022-11-06T07:53:26;9.00;96.30
31263;DHT22;17892;52.080;9.006;2022-11-06T07:55:52;9.10;96.30
31263;DHT22;17892;52.080;9.006;2022-11-06T07:58:19;9.10;96.20
31263;DHT22;17892;52.080;9.006;2022-11-06T08:00:48;9.20;96.20
31263;DHT22;17892;52.080;9.006;2022-11-06T08:03:15;9.30;96.20
31263;DHT22;17892;52.080;9.006;2022-11-06T08:05:41;9.40;96.20
31263;DHT22;17892;52.080;9.006;2022-11-06T08:08:07;9.50;96.20
31263;DHT22;17892;52.080;9.006;2022-11-06T08:10:33;9.50;96.00
31263;DHT22;17892;52.080;9.006;2022-11-06T08:13:01;9.70;96.00
31263;DHT22;17892;52.080;9.006;2022-11-06T08:15:27;9.90;95.70
31263;DHT22;17892;52.080;9.006;2022-11-06T08:17:53;10.00;95.20
31263;DHT22;17892;52.080;9.006;2022-11-06T08:20:19;10.20;95.00
31263;DHT22;17892;52.080;9.006;2022-11-06T08:22:44;10.40;94.80
31263;DHT22;17892;52.080;9.006;2022-11-06T08:25:10;10.60;94.50
31263;DHT22;17892;52.080;9.006;2022-11-06T08:27:35;10.60;94.10
31263;DHT22;17892;52.080;9.006;2022-11-06T08:30:02;10.70;93.90
31263;DHT22;17892;52.080;9.006;2022-11-06T08:32:28;10.70;93.90
31263;DHT22;17892;52.080;9.006;2022-11-06T08:34:54;10.70;93.60
31263;DHT22;17892;52.080;9.006;2022-11-06T08:37:20;10.80;93.90
31263;DHT22;17892;52.080;9.006;2022-11-06T08:39:45;10.80;93.60
31263;DHT22;17892;52.080;9.006;2022-11-06T08:42:11;10.90;93.80
31263;DHT22;17892;52.080;9.006;2022-11-06T08:44:36;11.20;94.00
31263;DHT22;17892;52.080;9.006;2022-11-06T08:47:02;11.40;93.50
31263;DHT22;17892;52.080;9.006;2022-11-06T08:49:28;11.80;94.00
31263;DHT22;17892;52.080;9.006;2022-11-06T08:51:54;12.10;92.70
31263;DHT22;17892;52.080;9.006;2022-11-06T08:54:19;12.40;92.30
31263;DHT22;17892;52.080;9.006;2022-11-06T08:56:45;12.70;91.70
31263;DHT22;17892;52.080;9.006;2022-11-06T08:59:10;13.00;91.80
31263;DHT22;17892;52.080;9.006;2022-11-06T09:01:36;13.20;91.40
31263;DHT22;17892;52.080;9.006;2022-11-06T09:04:02;13.60;91.50
31263;DHT22;17892;52.080;9.006;2022-11-06T09:06:28;13.80;90.40
31263;DHT22;17892;52.080;9.006;2022-11-06T09:08:53;14.00;90.40
31263;DHT22;17892;52.080;9.006;2022-11-06T09:11:20;14.20;88.10
31263;DHT22;17892;52.080;9.006;2022-11-06T09:13:46;14.40;88.00
31263;DHT22;17892;52.080;9.006;2022-11-06T09:16:12;14.60;86.70
31263;DHT22;17892;52.080;9.006;2022-11-06T09:18:37;14.70;87.80
31263;DHT22;17892;52.080;9.006;2022-11-06T09:21:03;14.90;88.40
31263;DHT22;17892;52.080;9.006;2022-11-06T09:23:29;15.10;89.00
31263;DHT22;17892;52.080;9.006;2022-11-06T09:25:55;15.20;87.30
31263;DHT22;17892;52.080;9.006;2022-11-06T09:28:26;15.40;86.90
31263;DHT22;17892;52.080;9.006;2022-11-06T09:30:52;15.60;84.70
31263;DHT22;17892;52.080;9.006;2022-11-06T09:33:19;15.80;84.80
31263;DHT22;17892;52.080;9.006;2022-11-06T09:35:45;15.90;86.30
31263;DHT22;17892;52.080;9.006;2022-11-06T09:38:11;16.00;82.60
31263;DHT22;17892;52.080;9.006;2022-11-06T09:46:00;16.20;82.20
31263;DHT22;17892;52.080;9.006;2022-11-06T09:48:40;16.20;80.80
31263;DHT22;17892;52.080;9.006;2022-11-06T09:56:31;16.40;80.50
31263;DHT22;17892;52.080;9.006;2022-11-06T09:58:58;16.30;80.60
31263;DHT22;17892;52.080;9.006;2022-11-06T10:01:27;16.10;78.80
31263;DHT22;17892;52.080;9.006;2022-11-06T10:04:13;15.80;79.60
31263;DHT22;17892;52.080;9.006;2022-11-06T10:07:01;15.50;80.20
31263;DHT22;17892;52.080;9.006;2022-11-06T10:09:27;15.10;82.10
31263;DHT22;17892;52.080;9.006;2022-11-06T10:12:06;14.90;82.60
31263;DHT22;17892;52.080;9.006;2022-11-06T10:17:35;14.30;83.70
31263;DHT22;17892;52.080;9.006;2022-11-06T10:20:10;14.00;84.70
31263;DHT22;17892;52.080;9.006;2022-11-06T10:23:25;13.80;84.80
31263;DHT22;17892;52.080;9.006;2022-11-06T10:26:00;13.60;85.40
31263;DHT22;17892;52.080;9.006;2022-11-06T10:34:11;13.20;86.50
31263;DHT22;17892;52.080;9.006;2022-11-06T10:36:44;13.10;87.30
31263;DHT22;17892;52.080;9.006;2022-11-06T10:39:12;13.10;88.10
31263;DHT22;17892;52.080;9.006;2022-11-06T10:41:41;13.00;88.20
31263;DHT22;17892;52.080;9.006;2022-11-06T10:44:16;13.00;88.80
31263;DHT22;17892;52.080;9.006;2022-11-06T10:46:48;13.00;87.90
31263;DHT22;17892;52.080;9.006;2022-11-06T10:57:41;13.00;88.90
31263;DHT22;17892;52.080;9.006;2022-11-06T11:00:15;13.00;88.60
31263;DHT22;17892;52.080;9.006;2022-11-06T11:02:45;13.10;89.00
31263;DHT22;17892;52.080;9.006;2022-11-06T11:05:13;13.10;88.90
31263;DHT22;17892;52.080;9.006;2022-11-06T11:07:40;13.20;88.60
31263;DHT22;17892;52.080;9.006;2022-11-06T11:12:49;13.30;89.70
31263;DHT22;17892;52.080;9.006;2022-11-06T11:15:18;13.50;89.10
31263;DHT22;17892;52.080;9.006;2022-11-06T11:18:30;13.60;88.90
31263;DHT22;17892;52.080;9.006;2022-11-06T11:20:39;13.60;88.30
31263;DHT22;17892;52.080;9.006;2022-11-06T11:23:12;13.80;89.60
31263;DHT22;17892;52.080;9.006;2022-11-06T11:25:50;13.80;87.30
31263;DHT22;17892;52.080;9.006;2022-11-06T11:28:21;13.90;87.40
31263;DHT22;17892;52.080;9.006;2022-11-06T11:31:09;14.00;86.40
31263;DHT22;17892;52.080;9.006;2022-11-06T11:33:36;14.10;86.50
31263;DHT22;17892;52.080;9.006;2022-11-06T11:36:03;14.10;86.30
31263;DHT22;17892;52.080;9.006;2022-11-06T11:38:31;14.20;85.20
31263;DHT22;17892;52.080;9.006;2022-11-06T11:41:07;14.20;86.70
31263;DHT22;17892;52.080;9.006;2022-11-06T11:43:36;14.30;86.60
31263;DHT22;17892;52.080;9.006;2022-11-06T11:46:03;14.30;87.40
31263;DHT22;17892;52.080;9.006;2022-11-06T11:48:41;14.30;85.80
31263;DHT22;17892;52.080;9.006;2022-11-06T11:51:29;14.30;86.20
31263;DHT22;17892;52.080;9.006;2022-11-06T11:56:34;14.20;84.40
31263;DHT22;17892;52.080;9.006;2022-11-06T11:59:22;14.20;84.60
31263;DHT22;17892;52.080;9.006;2022-11-06T12:01:54;14.20;86.30
31263;DHT22;17892;52.080;9.006;2022-11-06T12:04:40;14.20;85.90
31263;DHT22;17892;52.080;9.006;2022-11-06T12:07:24;14.30;84.60
31263;DHT22;17892;52.080;9.006;2022-11-06T12:09:51;14.30;85.60
31263;DHT22;17892;52.080;9.006;2022-11-06T12:12:21;14.30;85.40
31263;DHT22;17892;52.080;9.006;2022-11-06T12:15:10;14.40;87.00
31263;DHT22;17892;52.080;9.006;2022-11-06T12:17:51;14.50;84.60
31263;DHT22;17892;52.080;9.006;2022-11-06T12:20:21;14.50;85.40
31263;DHT22;17892;52.080;9.006;2022-11-06T12:22:50;14.60;85.40
31263;DHT22;17892;52.080;9.006;2022-11-06T12:25:19;14.70;84.90
31263;DHT22;17892;52.080;9.006;2022-11-06T12:27:59;14.80;84.30
31263;DHT22;17892;52.080;9.006;2022-11-06T12:30:26;14.90;84.10
31263;DHT22;17892;52.080;9.006;2022-11-06T12:33:01;14.90;84.70
31263;DHT22;17892;52.080;9.006;2022-11-06T12:35:29;14.90;82.80
31263;DHT22;17892;52.080;9.006;2022-11-06T12:38:17;14.90;82.70
31263;DHT22;17892;52.080;9.006;2022-11-06T12:41:19;15.00;83.20
31263;DHT22;17892;52.080;9.006;2022-11-06T12:43:47;15.10;84.20
31263;DHT22;17892;52.080;9.006;2022-11-06T12:46:17;15.30;82.40
31263;DHT22;17892;52.080;9.006;2022-11-06T13:00:20;16.40;79.10
31263;DHT22;17892;52.080;9.006;2022-11-06T13:05:19;16.30;79.00
31263;DHT22;17892;52.080;9.006;2022-11-06T13:16:09;15.50;77.80
31263;DHT22;17892;52.080;9.006;2022-11-06T13:27:18;15.00;79.20
31263;DHT22;17892;52.080;9.006;2022-11-06T13:32:46;14.80;80.50
31263;DHT22;17892;52.080;9.006;2022-11-06T13:35:24;14.80;80.30
31263;DHT22;17892;52.080;9.006;2022-11-06T13:37:50;14.60;78.50
31263;DHT22;17892;52.080;9.006;2022-11-06T13:51:34;14.20;79.90
31263;DHT22;17892;52.080;9.006;2022-11-06T13:53:54;14.10;80.40
31263;DHT22;17892;52.080;9.006;2022-11-06T13:56:32;14.00;80.10
31263;DHT22;17892;52.080;9.006;2022-11-06T14:05:26;13.80;80.90
31263;DHT22;17892;52.080;9.006;2022-11-06T14:08:04;13.80;80.80
31263;DHT22;17892;52.080;9.006;2022-11-06T14:10:34;13.80;81.00
31263;DHT22;17892;52.080;9.006;2022-11-06T14:13:02;13.80;81.40
31263;DHT22;17892;52.080;9.006;2022-11-06T14:15:35;13.80;82.10
31263;DHT22;17892;52.080;9.006;2022-11-06T14:18:02;13.80;80.90
31263;DHT22;17892;52.080;9.006;2022-11-06T14:20:32;13.80;81.30
31263;DHT22;17892;52.080;9.006;2022-11-06T14:26:02;13.80;79.50
31263;DHT22;17892;52.080;9.006;2022-11-06T14:28:36;13.80;80.50
31263;DHT22;17892;52.080;9.006;2022-11-06T14:31:03;13.70;80.20
31263;DHT22;17892;52.080;9.006;2022-11-06T14:36:24;13.70;80.50
31263;DHT22;17892;52.080;9.006;2022-11-06T14:38:54;13.70;81.50
31263;DHT22;17892;52.080;9.006;2022-11-06T14:43:58;13.60;81.20
31263;DHT22;17892;52.080;9.006;2022-11-06T14:46:25;13.60;81.80
31263;DHT22;17892;52.080;9.006;2022-11-06T14:48:53;13.60;81.20
31263;DHT22;17892;52.080;9.006;2022-11-06T14:51:24;13.60;80.80
31263;DHT22;17892;52.080;9.006;2022-11-06T14:53:51;13.60;81.10
31263;DHT22;17892;52.080;9.006;2022-11-06T14:56:30;13.50;80.80
31263;DHT22;17892;52.080;9.006;2022-11-06T14:59:04;13.50;79.90
31263;DHT22;17892;52.080;9.006;2022-11-06T15:01:32;13.50;80.00
31263;DHT22;17892;52.080;9.006;2022-11-06T15:04:03;13.40;79.90
31263;DHT22;17892;52.080;9.006;2022-11-06T15:09:14;13.30;80.10
31263;DHT22;17892;52.080;9.006;2022-11-06T15:12:09;13.30;80.70
31263;DHT22;17892;52.080;9.006;2022-11-06T15:19:42;13.20;81.10
31263;DHT22;17892;52.080;9.006;2022-11-06T15:25:19;13.10;81.10
31263;DHT22;17892;52.080;9.006;2022-11-06T15:28:03;13.10;80.70
31263;DHT22;17892;52.080;9.006;2022-11-06T15:30:36;13.00;79.80
31263;DHT22;17892;52.080;9.006;2022-11-06T15:33:07;13.00;80.40
31263;DHT22;17892;52.080;9.006;2022-11-06T15:35:36;13.00;80.00
31263;DHT22;17892;52.080;9.006;2022-11-06T15:38:04;12.90;79.80
31263;DHT22;17892;52.080;9.006;2022-11-06T15:40:35;12.90;79.00
31263;DHT22;17892;52.080;9.006;2022-11-06T15:43:12;12.90;79.70
31263;DHT22;17892;52.080;9.006;2022-11-06T15:46:04;12.90;79.50
31263;DHT22;17892;52.080;9.006;2022-11-06T15:48:33;12.80;79.50
31263;DHT22;17892;52.080;9.006;2022-11-06T15:50:59;12.80;79.20
31263;DHT22;17892;52.080;9.006;2022-11-06T15:53:26;12.70;78.90
31263;DHT22;17892;52.080;9.006;2022-11-06T15:58:26;12.70;79.60
31263;DHT22;17892;52.080;9.006;2022-11-06T16:00:56;12.70;79.10
31263;DHT22;17892;52.080;9.006;2022-11-06T16:03:24;12.70;79.60
31263;DHT22;17892;52.080;9.006;2022-11-06T16:05:52;12.60;80.60
31263;DHT22;17892;52.080;9.006;2022-11-06T16:08:18;12.60;80.10
31263;DHT22;17892;52.080;9.006;2022-11-06T16:10:45;12.50;80.10
31263;DHT22;17892;52.080;9.006;2022-11-06T16:13:13;12.50;79.90
31263;DHT22;17892;52.080;9.006;2022-11-06T16:21:26;12.40;79.40
31263;DHT22;17892;52.080;9.006;2022-11-06T16:23:35;12.30;79.70
31263;DHT22;17892;52.080;9.006;2022-11-06T16:26:03;12.30;80.10
31263;DHT22;17892;52.080;9.006;2022-11-06T16:28:31;12.30;79.70
31263;DHT22;17892;52.080;9.006;2022-11-06T16:30:59;12.30;80.50
31263;DHT22;17892;52.080;9.006;2022-11-06T16:33:29;12.30;79.80
31263;DHT22;17892;52.080;9.006;2022-11-06T16:36:04;12.30;80.00
31263;DHT22;17892;52.080;9.006;2022-11-06T16:38:38;12.30;79.80
31263;DHT22;17892;52.080;9.006;2022-11-06T16:41:06;12.20;80.10
31263;DHT22;17892;52.080;9.006;2022-11-06T16:43:32;12.20;79.80
31263;DHT22;17892;52.080;9.006;2022-11-06T16:46:02;12.20;79.70
31263;DHT22;17892;52.080;9.006;2022-11-06T16:48:41;12.30;79.70
31263;DHT22;17892;52.080;9.006;2022-11-06T16:51:13;12.30;79.60
31263;DHT22;17892;52.080;9.006;2022-11-06T16:56:12;12.30;80.30
31263;DHT22;17892;52.080;9.006;2022-11-06T16:58:49;12.30;80.70
31263;DHT22;17892;52.080;9.006;2022-11-06T17:01:17;12.40;80.20
31263;DHT22;17892;52.080;9.006;2022-11-06T17:03:52;12.40;79.60
31263;DHT22;17892;52.080;9.006;2022-11-06T17:06:27;12.40;80.40
31263;DHT22;17892;52.080;9.006;2022-11-06T17:08:59;12.40;78.90
31263;DHT22;17892;52.080;9.006;2022-11-06T17:11:30;12.40;79.40
31263;DHT22;17892;52.080;9.006;2022-11-06T17:13:56;12.40;80.00
31263;DHT22;17892;52.080;9.006;2022-11-06T17:16:22;12.40;80.00
31263;DHT22;17892;52.080;9.006;2022-11-06T17:18:51;12.40;80.10
31263;DHT22;17892;52.080;9.006;2022-11-06T17:21:19;12.40;80.50
31263;DHT22;17892;52.080;9.006;2022-11-06T17:23:49;12.40;80.30
31263;DHT22;17892;52.080;9.006;2022-11-06T17:26:17;12.40;80.40
31263;DHT22;17892;52.080;9.006;2022-11-06T17:28:46;12.40;80.20
31263;DHT22;17892;52.080;9.006;2022-11-06T17:31:12;12.40;80.60
31263;DHT22;17892;52.080;9.006;2022-11-06T17:33:39;12.40;79.90
31263;DHT22;17892;52.080;9.006;2022-11-06T17:36:06;12.30;80.70
31263;DHT22;17892;52.080;9.006;2022-11-06T17:38:34;12.30;81.00
31263;DHT22;17892;52.080;9.006;2022-11-06T17:41:00;12.30;80.60
31263;DHT22;17892;52.080;9.006;2022-11-06T17:43:26;12.30;80.70
31263;DHT22;17892;52.080;9.006;2022-11-06T17:45:51;12.30;80.90
31263;DHT22;17892;52.080;9.006;2022-11-06T17:48:17;12.30;81.00
31263;DHT22;17892;52.080;9.006;2022-11-06T17:50:43;12.30;80.90
31263;DHT22;17892;52.080;9.006;2022-11-06T17:53:27;12.30;80.50
31263;DHT22;17892;52.080;9.006;2022-11-06T17:55:53;12.30;80.90
31263;DHT22;17892;52.080;9.006;2022-11-06T17:58:18;12.30;80.90
31263;DHT22;17892;52.080;9.006;2022-11-06T18:00:44;12.30;81.30
31263;DHT22;17892;52.080;9.006;2022-11-06T18:03:16;12.30;80.50
31263;DHT22;17892;52.080;9.006;2022-11-06T18:05:44;12.30;81.20
31263;DHT22;17892;52.080;9.006;2022-11-06T18:08:11;12.40;81.00
31263;DHT22;17892;52.080;9.006;2022-11-06T18:10:37;12.40;81.00
31263;DHT22;17892;52.080;9.006;2022-11-06T18:13:04;12.40;80.80
31263;DHT22;17892;52.080;9.006;2022-11-06T18:15:33;12.40;81.20
31263;DHT22;17892;52.080;9.006;2022-11-06T18:18:00;12.40;81.10
31263;DHT22;17892;52.080;9.006;2022-11-06T18:20:25;12.40;81.50